createdAt,value
2022-11-27T00:01:49.262Z,13.80
2022-11-27T00:04:18.276Z,12.80
2022-11-27T00:06:47.148Z,12.50
2022-11-27T00:09:16.682Z,11.40
2022-11-27T00:11:45.688Z,13.30
2022-11-27T00:14:16.652Z,12.90
2022-11-27T00:16:45.446Z,13.20
2022-11-27T00:19:14.689Z,13.00
2022-11-27T00:21:44.758Z,12.20
2022-11-27T00:24:14.012Z,12.10
2022-11-27T00:26:42.948Z,12.00
2022-11-27T00:29:17.883Z,12.20
2022-11-27T00:31:46.657Z,11.70
2022-11-27T00:34:15.585Z,13.10
2022-11-27T00:36:48.139Z,12.20
2022-11-27T00:39:17.541Z,9.20
2022-11-27T00:41:47.602Z,12.70
2022-11-27T00:44:17.356Z,12.60
2022-11-27T00:46:46.545Z,13.20
2022-11-27T00:49:15.969Z,11.80
2022-11-27T00:51:45.441Z,12.80
2022-11-27T00:54:14.832Z,10.80
2022-11-27T00:56:43.867Z,12.00
2022-11-27T00:59:12.853Z,13.30
2022-11-27T01:01:43.971Z,11.80
2022-11-27T01:04:17.153Z,11.60
2022-11-27T01:06:46.550Z,10.70
2022-11-27T01:09:18.173Z,11.00
2022-11-27T01:11:47.748Z,11.80
2022-11-27T01:14:19.625Z,12.40
2022-11-27T01:16:50.015Z,11.90
2022-11-27T01:19:22.623Z,11.90
2022-11-27T01:21:57.511Z,12.20
2022-11-27T01:24:31.289Z,11.20
2022-11-27T01:27:00.213Z,11.30
2022-11-27T01:29:29.588Z,11.80
2022-11-27T01:32:02.673Z,11.30
2022-11-27T01:34:31.560Z,10.20
2022-11-27T01:37:00.833Z,10.90
2022-11-27T01:39:29.868Z,9.80
2022-11-27T01:41:58.778Z,8.90
2022-11-27T01:44:27.618Z,10.80
2022-11-27T01:47:04.040Z,11.30
2022-11-27T01:49:45.248Z,10.30
2022-11-27T01:52:34.948Z,11.60
2022-11-27T01:55:21.829Z,9.80
2022-11-27T01:57:58.145Z,10.40
2022-11-27T02:00:27.393Z,9.70
2022-11-27T02:02:56.961Z,10.10
2022-11-27T02:05:28.938Z,11.40
2022-11-27T02:08:01.087Z,8.50
2022-11-27T02:10:50.407Z,9.10
2022-11-27T02:13:37.429Z,9.70
2022-11-27T02:16:50.162Z,10.00
2022-11-27T02:20:12.540Z,9.30
2022-11-27T02:23:28.122Z,9.00
2022-11-27T02:26:34.099Z,8.90
2022-11-27T02:29:19.850Z,9.60
2022-11-27T02:31:57.597Z,8.90
2022-11-27T02:34:50.398Z,9.00
2022-11-27T02:37:42.414Z,8.40
2022-11-27T02:40:26.386Z,10.10
2022-11-27T02:43:25.631Z,9.50
2022-11-27T02:45:56.829Z,9.40
2022-11-27T02:48:32.747Z,9.20
2022-11-27T02:51:03.922Z,9.20
2022-11-27T02:53:59.749Z,8.80
2022-11-27T02:56:30.066Z,9.90
2022-11-27T02:59:03.876Z,9.50
2022-11-27T03:01:44.073Z,7.90
2022-11-27T03:04:21.417Z,7.70
2022-11-27T03:06:58.145Z,8.00
2022-11-27T03:09:39.720Z,9.40
2022-11-27T03:12:10.655Z,8.50
2022-11-27T03:14:47.476Z,7.60
2022-11-27T03:18:00.390Z,7.50
2022-11-27T03:20:38.992Z,8.20
2022-11-27T03:23:08.024Z,7.80
2022-11-27T03:25:36.938Z,6.70
2022-11-27T03:28:08.656Z,7.10
2022-11-27T03:30:37.524Z,7.00
2022-11-27T03:33:06.581Z,7.40
2022-11-27T03:35:35.378Z,7.80
2022-11-27T03:38:04.307Z,7.20
2022-11-27T03:40:56.232Z,7.50
2022-11-27T03:43:28.744Z,7.80
2022-11-27T03:46:07.257Z,7.20
2022-11-27T03:48:48.019Z,5.80
2022-11-27T03:52:08.708Z,6.50
2022-11-27T03:55:08.793Z,7.00
2022-11-27T03:57:59.349Z,6.20
2022-11-27T04:00:32.229Z,6.50
2022-11-27T04:03:03.270Z,6.40
2022-11-27T04:05:32.125Z,6.90
2022-11-27T04:08:00.998Z,6.60
2022-11-27T04:10:29.878Z,5.40
2022-11-27T04:12:58.682Z,6.10
2022-11-27T04:15:27.726Z,5.80
2022-11-27T04:17:57.184Z,6.30
2022-11-27T04:20:25.861Z,6.20
2022-11-27T04:22:54.891Z,7.40
2022-11-27T04:25:24.024Z,6.00
2022-11-27T04:27:52.935Z,6.30
2022-11-27T04:30:22.070Z,6.40
2022-11-27T04:32:50.887Z,7.50
2022-11-27T04:35:21.572Z,6.70
2022-11-27T04:37:53.244Z,6.30
2022-11-27T04:40:22.226Z,7.10
2022-11-27T04:42:59.723Z,6.20
2022-11-27T04:45:33.677Z,6.80
2022-11-27T04:48:02.536Z,6.90
2022-11-27T04:50:31.313Z,6.60
2022-11-27T04:53:00.311Z,6.20
2022-11-27T04:55:29.626Z,7.20
2022-11-27T04:57:58.380Z,6.60
2022-11-27T05:00:27.257Z,6.60
2022-11-27T05:02:59.269Z,6.50
2022-11-27T05:05:30.816Z,7.10
2022-11-27T05:07:59.709Z,7.00
2022-11-27T05:10:28.522Z,6.90
2022-11-27T05:12:58.651Z,6.70
2022-11-27T05:15:28.847Z,6.70
2022-11-27T05:17:58.525Z,6.70
2022-11-27T05:20:27.548Z,7.60
2022-11-27T05:22:56.432Z,7.50
2022-11-27T05:25:25.266Z,6.90
2022-11-27T05:27:54.300Z,7.40
2022-11-27T05:30:23.169Z,8.10
2022-11-27T05:32:51.965Z,6.90
2022-11-27T05:35:21.091Z,6.90
2022-11-27T05:37:50.868Z,7.40
2022-11-27T05:40:19.863Z,6.70
2022-11-27T05:42:49.067Z,7.00
2022-11-27T05:45:18.341Z,8.30
2022-11-27T05:47:47.489Z,6.70
2022-11-27T05:50:16.581Z,7.00
2022-11-27T05:52:45.504Z,6.90
2022-11-27T05:55:14.692Z,7.10
2022-11-27T05:57:43.889Z,7.20
2022-11-27T06:00:14.585Z,8.30
2022-11-27T06:02:45.283Z,9.60
2022-11-27T06:05:14.439Z,8.10
2022-11-27T06:07:43.714Z,10.70
2022-11-27T06:10:13.087Z,9.20
2022-11-27T06:12:42.164Z,9.00
2022-11-27T06:15:11.978Z,10.60
2022-11-27T06:17:41.144Z,9.50
2022-11-27T06:20:13.475Z,8.30
2022-11-27T06:22:43.268Z,7.80
2022-11-27T06:25:12.419Z,8.40
2022-11-27T06:27:41.569Z,8.50
2022-11-27T06:33:22.543Z,9.30
2022-11-27T06:35:51.649Z,10.30
2022-11-27T06:38:20.424Z,9.20
2022-11-27T06:40:49.422Z,10.90
2022-11-27T06:43:18.918Z,8.00
2022-11-27T06:45:57.822Z,8.00
2022-11-27T06:48:27.668Z,7.90
2022-11-27T06:51:05.659Z,7.70
2022-11-27T06:53:38.897Z,7.60
2022-11-27T06:56:14.652Z,7.70
2022-11-27T06:58:46.370Z,7.30
2022-11-27T07:01:18.239Z,8.00
2022-11-27T07:03:48.411Z,8.30
2022-11-27T07:06:21.971Z,9.00
2022-11-27T07:08:51.693Z,9.60
2022-11-27T07:11:25.250Z,10.60
2022-11-27T07:13:57.814Z,9.10
2022-11-27T07:16:30.625Z,10.30
2022-11-27T07:19:04.301Z,10.90
2022-11-27T07:21:34.457Z,11.80
2022-11-27T07:24:04.988Z,11.30
2022-11-27T07:26:35.338Z,8.30
2022-11-27T07:29:05.254Z,8.40
2022-11-27T07:31:36.510Z,9.00
2022-11-27T07:34:10.351Z,9.00
2022-11-27T07:36:43.691Z,10.10
2022-11-27T07:39:14.546Z,9.70
2022-11-27T07:41:43.702Z,10.00
2022-11-27T07:44:14.571Z,9.60
2022-11-27T07:46:43.711Z,10.30
2022-11-27T07:49:13.462Z,10.40
2022-11-27T07:51:42.565Z,8.90
2022-11-27T07:54:12.540Z,9.60
2022-11-27T07:56:41.661Z,9.60
2022-11-27T07:59:19.320Z,10.00
2022-11-27T08:01:49.897Z,10.70
2022-11-27T08:04:20.643Z,12.20
2022-11-27T08:06:51.693Z,10.70
2022-11-27T08:09:22.994Z,12.50
2022-11-27T08:11:53.222Z,11.20
2022-11-27T08:14:24.063Z,10.80
2022-11-27T08:16:57.072Z,10.60
2022-11-27T08:19:27.851Z,10.70
2022-11-27T08:21:58.097Z,11.10
2022-11-27T08:24:28.686Z,10.30
2022-11-27T08:27:02.731Z,10.10
2022-11-27T08:29:51.095Z,10.50
2022-11-27T08:32:25.768Z,11.40
2022-11-27T08:34:55.977Z,11.50
2022-11-27T08:37:27.671Z,11.50
2022-11-27T08:40:00.927Z,11.70
2022-11-27T08:45:42.019Z,11.70
2022-11-27T08:51:28.862Z,13.20
2022-11-27T08:53:58.612Z,12.10
2022-11-27T08:56:29.985Z,12.60
2022-11-27T08:59:02.702Z,10.70
2022-11-27T09:01:35.376Z,11.20
2022-11-27T09:04:30.963Z,10.90
2022-11-27T09:07:00.447Z,10.90
2022-11-27T09:09:29.659Z,11.30
2022-11-27T09:11:58.516Z,11.40
2022-11-27T09:14:28.001Z,12.20
2022-11-27T09:17:04.532Z,13.00
2022-11-27T09:19:34.504Z,14.10
2022-11-27T09:22:04.547Z,13.60
2022-11-27T09:24:33.857Z,13.70
2022-11-27T09:27:02.887Z,12.80
2022-11-27T09:29:31.652Z,12.70
2022-11-27T09:32:01.459Z,13.00
2022-11-27T09:34:35.996Z,13.10
2022-11-27T09:37:06.805Z,14.30
2022-11-27T09:39:36.693Z,13.40
2022-11-27T09:42:09.893Z,13.30
2022-11-27T09:44:59.774Z,12.40
2022-11-27T09:47:57.385Z,13.20
2022-11-27T09:50:38.651Z,12.70
2022-11-27T09:53:23.573Z,12.10
2022-11-27T09:55:55.921Z,12.60
2022-11-27T09:58:44.031Z,13.50
2022-11-27T10:01:16.916Z,11.90
2022-11-27T10:03:47.292Z,13.00
2022-11-27T10:06:31.592Z,13.00
2022-11-27T10:09:40.940Z,12.90
2022-11-27T10:12:30.718Z,13.20
2022-11-27T10:15:32.804Z,13.10
2022-11-27T10:18:34.842Z,13.70
2022-11-27T10:21:23.069Z,12.50
2022-11-27T10:24:24.494Z,12.50
2022-11-27T10:26:57.880Z,12.80
2022-11-27T10:29:47.201Z,13.90
2022-11-27T10:32:55.176Z,14.80
2022-11-27T10:35:32.326Z,14.10
2022-11-27T10:38:20.391Z,14.10
2022-11-27T10:44:36.167Z,15.50
2022-11-27T10:47:08.913Z,14.60
2022-11-27T10:49:42.540Z,15.00
2022-11-27T10:52:19.588Z,14.50
2022-11-27T10:55:07.669Z,14.30
2022-11-27T10:58:27.547Z,15.20
2022-11-27T11:01:20.742Z,14.40
2022-11-27T11:04:37.490Z,13.80
2022-11-27T11:07:32.224Z,14.50
2022-11-27T11:10:38.733Z,14.80
2022-11-27T11:13:22.910Z,14.80
2022-11-27T11:16:34.495Z,16.10
2022-11-27T11:19:12.495Z,14.70
2022-11-27T11:21:48.334Z,13.90
2022-11-27T11:24:42.850Z,13.40
2022-11-27T11:27:30.811Z,14.50
2022-11-27T11:33:31.237Z,14.20
2022-11-27T11:36:19.428Z,16.20
2022-11-27T11:38:51.179Z,15.10
2022-11-27T11:41:25.566Z,15.60
2022-11-27T11:44:02.322Z,14.50
2022-11-27T11:46:37.037Z,14.90
2022-11-27T15:10:00.187Z,16.50
2022-11-27T15:12:33.880Z,15.60
2022-11-27T15:15:16.206Z,16.00
2022-11-27T15:17:51.160Z,16.60
2022-11-27T15:20:39.829Z,16.60
2022-11-27T15:23:28.205Z,14.70
2022-11-27T15:26:00.961Z,15.50
2022-11-27T15:29:28.180Z,15.50
2022-11-27T15:32:01.305Z,16.00
2022-11-27T15:34:35.209Z,15.90
2022-11-27T15:37:06.572Z,16.40
2022-11-27T15:42:30.839Z,16.10
2022-11-27T15:45:01.388Z,16.30
2022-11-27T15:47:37.526Z,15.20
2022-11-27T15:50:07.934Z,17.00
2022-11-27T15:52:39.818Z,12.80
2022-11-27T15:55:16.396Z,16.30
2022-11-27T15:57:48.313Z,15.70
2022-11-27T16:00:19.006Z,15.90
2022-11-27T16:02:49.003Z,16.40
2022-11-27T16:05:19.854Z,15.60
2022-11-27T16:07:53.590Z,16.10
2022-11-27T16:10:24.184Z,16.50
2022-11-27T16:12:55.740Z,15.70
2022-11-27T16:18:00.182Z,16.40
2022-11-27T16:20:35.672Z,16.20
2022-11-27T16:23:11.944Z,16.50
2022-11-27T16:26:17.502Z,17.20
2022-11-27T16:28:47.448Z,15.90
2022-11-27T16:31:16.978Z,17.10
2022-11-27T16:33:47.321Z,17.00
2022-11-27T16:36:22.528Z,16.60
2022-11-27T16:38:54.676Z,15.80
2022-11-27T16:41:26.484Z,16.10
2022-11-27T16:43:57.909Z,15.00
2022-11-27T16:46:30.334Z,15.90
2022-11-27T16:49:01.303Z,14.50
2022-11-27T16:51:33.921Z,15.70
2022-11-27T16:54:10.131Z,15.60
2022-11-27T16:56:44.492Z,13.30
2022-11-27T16:59:16.944Z,14.60
2022-11-27T17:01:47.382Z,15.00
2022-11-27T17:04:20.437Z,15.70
2022-11-27T17:06:52.936Z,14.30
2022-11-27T17:09:25.472Z,14.50
2022-11-27T17:11:54.567Z,14.60
2022-11-27T17:14:27.895Z,12.80
2022-11-27T17:16:57.454Z,14.10
2022-11-27T17:19:29.978Z,15.30
2022-11-27T17:22:27.697Z,13.00
2022-11-27T17:38:44.031Z,14.80
2022-11-27T17:41:15.060Z,15.50
2022-11-27T17:43:53.848Z,14.10
2022-11-27T17:46:33.085Z,14.60
2022-11-27T17:49:04.533Z,13.10
2022-11-27T17:51:36.169Z,14.20
2022-11-27T17:54:06.920Z,13.70
2022-11-27T17:56:36.842Z,13.90
2022-11-27T17:59:10.182Z,13.20
2022-11-27T18:01:45.095Z,13.30
2022-11-27T18:04:14.314Z,13.80
2022-11-27T18:07:13.088Z,14.00
2022-11-27T18:10:01.382Z,11.40
2022-11-27T18:12:30.234Z,13.30
2022-11-27T18:15:06.128Z,13.80
2022-11-27T18:17:36.581Z,13.20
2022-11-27T18:27:40.244Z,12.10
2022-11-27T18:30:32.125Z,13.00
2022-11-27T18:33:23.977Z,13.90
2022-11-27T18:36:04.229Z,13.60
2022-11-27T18:42:07.015Z,13.60
2022-11-27T18:44:44.388Z,13.60
2022-11-27T18:47:16.080Z,14.20
2022-11-27T18:49:49.237Z,15.00
2022-11-27T18:52:18.384Z,13.90
2022-11-27T18:54:54.602Z,13.10
2022-11-27T18:57:38.783Z,14.40
2022-11-27T19:04:13.167Z,14.40
2022-11-27T19:06:53.055Z,13.50
2022-11-27T19:09:35.596Z,13.90
2022-11-27T19:15:02.629Z,13.80
2022-11-27T19:17:33.067Z,13.20
2022-11-27T19:23:18.336Z,12.80
2022-11-27T19:32:24.189Z,12.60
2022-11-27T19:34:54.770Z,12.80
2022-11-27T19:37:34.417Z,13.00
2022-11-27T20:00:53.686Z,15.40
2022-11-27T20:03:21.364Z,14.50
2022-11-27T20:09:13.709Z,13.40
2022-11-27T20:22:59.986Z,14.20
2022-11-27T20:25:40.723Z,13.20
2022-11-27T20:28:25.388Z,13.90
2022-11-27T20:31:02.691Z,14.10
2022-11-27T20:33:32.272Z,13.10
2022-11-27T20:36:03.012Z,14.00
2022-11-27T20:38:31.533Z,14.80
2022-11-27T20:41:00.015Z,13.50
2022-11-27T20:43:28.869Z,12.60
2022-11-27T20:45:56.521Z,13.00
2022-11-27T20:48:24.163Z,13.50
2022-11-27T20:50:52.269Z,12.30
2022-11-27T20:53:20.436Z,12.70
2022-11-27T20:55:48.743Z,13.00
2022-11-27T20:58:16.914Z,12.70
2022-11-27T21:00:46.818Z,13.00
2022-11-27T21:03:14.405Z,12.80
2022-11-27T21:05:54.512Z,15.50
2022-11-27T21:08:22.554Z,12.70
2022-11-27T21:10:50.545Z,13.20
2022-11-27T21:13:18.808Z,12.70
2022-11-27T21:15:47.532Z,12.20
2022-11-27T21:18:15.651Z,14.50
2022-11-27T21:20:43.354Z,13.60
2022-11-27T21:23:14.942Z,14.30
2022-11-27T21:25:43.276Z,13.90
2022-11-27T21:28:16.761Z,14.10
2022-11-27T21:30:45.835Z,14.80
2022-11-27T21:33:25.044Z,14.80
2022-11-27T21:35:57.037Z,14.40
2022-11-27T21:38:25.214Z,16.70
2022-11-27T21:40:56.076Z,17.50
2022-11-27T21:43:36.989Z,15.30
2022-11-27T21:46:17.736Z,15.10
2022-11-27T21:48:50.266Z,16.10
2022-11-27T21:51:21.237Z,16.10
2022-11-27T21:53:51.989Z,16.30
2022-11-27T21:56:22.188Z,16.60
2022-11-27T21:58:50.433Z,15.40
2022-11-27T22:01:21.260Z,14.70
2022-11-27T22:03:53.727Z,16.10
2022-11-27T22:06:26.051Z,16.10
2022-11-27T22:08:56.931Z,15.80
2022-11-27T22:11:32.003Z,15.70
2022-11-27T22:14:05.398Z,16.40
2022-11-27T22:16:42.796Z,15.90
2022-11-27T22:19:23.105Z,15.70
2022-11-27T22:21:50.428Z,14.40
2022-11-27T22:24:19.747Z,14.70
2022-11-27T22:26:55.112Z,16.10
2022-11-27T22:29:23.135Z,15.20
2022-11-27T22:31:53.219Z,15.20
2022-11-27T22:34:21.173Z,16.30
2022-11-27T22:36:48.750Z,14.90
2022-11-27T22:39:16.136Z,15.70
2022-11-27T22:41:44.642Z,15.00
2022-11-27T22:44:20.599Z,15.20
2022-11-27T22:46:49.136Z,15.20
2022-11-27T22:49:18.295Z,15.30
2022-11-27T22:51:46.202Z,14.50
2022-11-27T22:54:16.514Z,14.60
2022-11-27T22:56:45.771Z,14.50
2022-11-27T23:02:08.637Z,15.40
2022-11-27T23:04:37.613Z,15.30
2022-11-27T23:07:05.990Z,13.90
2022-11-27T23:09:34.438Z,14.30
2022-11-27T23:12:01.983Z,15.40
2022-11-27T23:14:29.599Z,15.00
2022-11-27T23:16:56.961Z,15.20
2022-11-27T23:19:24.409Z,16.00
2022-11-27T23:21:52.030Z,15.70
2022-11-27T23:24:19.551Z,15.00
2022-11-27T23:26:47.086Z,14.10
2022-11-27T23:29:14.594Z,15.40
2022-11-27T23:31:42.320Z,16.30
2022-11-27T23:34:13.190Z,14.60
2022-11-27T23:36:41.227Z,15.30
2022-11-27T23:39:11.783Z,16.00
2022-11-27T23:41:40.088Z,15.40
2022-11-27T23:44:07.732Z,15.10
2022-11-27T23:46:35.298Z,15.70
2022-11-27T23:49:02.809Z,16.50
2022-11-27T23:51:33.494Z,15.80
2022-11-27T23:56:31.897Z,15.80
2022-11-27T23:59:00.330Z,14.20
